Time;durP1;ratioP1;P1;durP2;ratioP2;P2;SDS_P1;SDS_P2;PMS_P1;PMS_P2;Temp;Humidity;BMP_temperature;BMP_pressure;BME280_temperature;BME280_humidity;BME280_pressure;Samples;Min_cycle;Max_cycle;Signal;HPM_P1;HPM_P2
2024/01/14 00:00:08;;;;;;;14.70;11.13;;;;;;;-0.07;100.00;98901.97;5073122;28;20623;-54
2024/01/14 00:02:38;;;;;;;18.43;11.60;;;;;;;-0.07;100.00;98899.44;5071559;28;20237;-55
2024/01/14 00:05:07;;;;;;;16.77;12.00;;;;;;;-0.06;100.00;98906.19;5063939;28;20680;-53
2024/01/14 00:07:36;;;;;;;15.00;12.30;;;;;;;-0.05;100.00;98904.50;5072741;28;20208;-54
2024/01/14 00:10:05;;;;;;;16.73;10.93;;;;;;;-0.04;100.00;98896.94;5072249;28;20209;-50
2024/01/14 00:12:33;;;;;;;16.17;11.30;;;;;;;-0.03;100.00;98897.81;5072162;28;20579;-54
2024/01/14 00:15:01;;;;;;;16.30;11.57;;;;;;;-0.03;100.00;98887.66;5072260;28;20211;-52
2024/01/14 00:17:30;;;;;;;15.67;11.17;;;;;;;-0.02;100.00;98884.28;5072731;28;20623;-51
2024/01/14 00:20:03;;;;;;;13.03;10.03;;;;;;;-0.01;100.00;98880.94;5068112;28;20201;-52
2024/01/14 00:22:32;;;;;;;15.60;10.67;;;;;;;0.02;100.00;98885.19;5072136;28;20201;-50
2024/01/14 00:24:59;;;;;;;17.10;11.17;;;;;;;0.01;100.00;98879.28;5071898;28;20211;-50
2024/01/14 00:27:27;;;;;;;15.73;11.93;;;;;;;0.02;100.00;98870.00;5066631;28;20222;-51
2024/01/14 00:29:57;;;;;;;16.20;11.63;;;;;;;0.01;100.00;98871.69;5052701;28;20244;-49
2024/01/14 00:32:26;;;;;;;16.77;12.47;;;;;;;0.02;100.00;98867.47;5066878;28;20723;-54
2024/01/14 00:34:54;;;;;;;15.20;12.50;;;;;;;0.01;100.00;98851.41;5068489;28;20209;-54
2024/01/14 00:37:24;;;;;;;16.00;10.57;;;;;;;0.02;100.00;98857.34;5058418;28;20750;-50
2024/01/14 00:39:52;;;;;;;13.93;10.43;;;;;;;0.03;100.00;98871.69;5072092;28;20201;-54
2024/01/14 00:42:20;;;;;;;14.87;11.07;;;;;;;0.02;100.00;98854.81;5070622;28;20229;-52
2024/01/14 00:44:48;;;;;;;16.23;10.97;;;;;;;0.01;100.00;98859.03;5071657;28;20585;-53
2024/01/14 00:47:16;;;;;;;15.67;10.83;;;;;;;-0.01;100.00;98848.84;5071551;28;20240;-50
2024/01/14 00:49:44;;;;;;;16.03;11.37;;;;;;;-0.01;100.00;98848.00;5071753;28;20671;-51
2024/01/14 00:52:12;;;;;;;16.90;11.37;;;;;;;-0.01;100.00;98840.41;5071065;28;20700;-51
2024/01/14 00:54:41;;;;;;;15.77;11.07;;;;;;;0.01;100.00;98837.91;5067235;28;20198;-50
2024/01/14 00:57:10;;;;;;;15.70;11.27;;;;;;;0.02;100.00;98829.47;5070837;28;20202;-51
2024/01/14 00:59:38;;;;;;;17.37;12.77;;;;;;;0.02;100.00;98821.88;5071515;28;20201;-51
2024/01/14 01:02:06;;;;;;;16.30;11.57;;;;;;;0.02;100.00;98826.94;5070004;28;20213;-52
2024/01/14 01:04:34;;;;;;;14.93;10.50;;;;;;;0.02;100.00;98815.13;5071291;28;20197;-50
2024/01/14 01:07:02;;;;;;;14.93;12.13;;;;;;;0.02;100.00;98809.22;5071782;28;20672;-52
2024/01/14 01:09:30;;;;;;;18.37;12.00;;;;;;;0.03;100.00;98806.69;5070732;28;20262;-52
2024/01/14 01:11:59;;;;;;;15.03;11.33;;;;;;;0.04;100.00;98802.47;5066460;28;20643;-54
2024/01/14 01:14:27;;;;;;;17.87;11.97;;;;;;;0.04;100.00;98798.28;5070729;28;20201;-52
2024/01/14 01:16:55;;;;;;;16.67;12.10;;;;;;;0.05;100.00;98804.19;5071568;28;20212;-51
2024/01/14 01:19:26;;;;;;;19.23;12.07;;;;;;;0.08;100.00;98787.34;5071116;28;20209;-50
2024/01/14 01:21:54;;;;;;;17.57;12.10;;;;;;;0.07;100.00;98770.44;5071255;28;20207;-51
2024/01/14 01:24:22;;;;;;;18.00;12.03;;;;;;;0.12;100.00;98776.41;5067340;28;20299;-51
2024/01/14 01:26:51;;;;;;;12.43;10.03;;;;;;;0.13;100.00;98778.09;5067550;28;20221;-53
2024/01/14 01:29:20;;;;;;;18.53;11.97;;;;;;;0.15;100.00;98773.06;5061728;28;20205;-54
2024/01/14 01:31:48;;;;;;;15.57;12.47;;;;;;;0.20;100.00;98771.41;5063362;28;20278;-51
2024/01/14 01:34:24;;;;;;;14.90;11.27;;;;;;;0.20;100.00;98768.88;5070381;28;20630;-51
2024/01/14 01:36:52;;;;;;;15.53;11.77;;;;;;;0.23;100.00;98768.91;5071341;28;20208;-54
2024/01/14 01:39:20;;;;;;;15.93;10.63;;;;;;;0.25;100.00;98767.22;5070377;28;20255;-52
2024/01/14 01:41:49;;;;;;;16.37;11.13;;;;;;;0.28;100.00;98764.72;5067932;28;20205;-50
2024/01/14 01:44:17;;;;;;;15.97;12.33;;;;;;;0.30;100.00;98754.63;5069232;28;20266;-51
2024/01/14 01:46:47;;;;;;;15.23;11.17;;;;;;;0.31;100.00;98739.44;5059391;28;20673;-53
2024/01/14 01:49:15;;;;;;;16.20;10.13;;;;;;;0.32;100.00;98730.97;5069438;28;20743;-50
2024/01/14 01:51:47;;;;;;;14.90;10.60;;;;;;;0.34;100.00;98742.00;5070346;28;20197;-51
2024/01/14 01:54:18;;;;;;;13.57;11.13;;;;;;;0.36;100.00;98727.63;5070825;28;20205;-50
2024/01/14 01:56:46;;;;;;;12.70;10.50;;;;;;;0.37;100.00;98721.75;5071136;28;20714;-50
2024/01/14 01:59:15;;;;;;;13.23;10.00;;;;;;;0.39;100.00;98727.66;5067281;28;20213;-52
2024/01/14 02:01:47;;;;;;;14.63;10.70;;;;;;;0.42;100.00;98726.84;5068112;28;20202;-53
2024/01/14 02:04:17;;;;;;;11.80;9.80;;;;;;;0.41;100.00;98723.47;5063353;28;20229;-53
2024/01/14 02:06:45;;;;;;;13.53;10.70;;;;;;;0.41;100.00;98713.34;5070748;28;20228;-54
2024/01/14 02:09:13;;;;;;;15.60;10.57;;;;;;;0.40;100.00;98715.84;5070985;28;20209;-52
2024/01/14 02:11:41;;;;;;;14.80;11.23;;;;;;;0.40;100.00;98720.91;5070183;28;20205;-51
2024/01/14 02:14:09;;;;;;;14.53;10.77;;;;;;;0.37;100.00;98714.16;5070778;28;20649;-54
2024/01/14 02:16:37;;;;;;;12.73;9.67;;;;;;;0.37;100.00;98713.28;5071018;28;20646;-52
2024/01/14 02:19:06;;;;;;;14.50;9.53;;;;;;;0.37;100.00;98706.56;5067456;28;20292;-51
2024/01/14 02:21:41;;;;;;;14.40;10.53;;;;;;;0.38;100.00;98704.88;5066681;28;20232;-51
2024/01/14 02:24:20;;;;;;;12.53;9.83;;;;;;;0.39;100.00;98704.88;5061832;28;20204;-51
2024/01/14 02:26:48;;;;;;;14.83;10.03;;;;;;;0.41;100.00;98700.66;5056703;28;20301;-53
2024/01/14 02:29:16;;;;;;;13.87;10.00;;;;;;;0.43;100.00;98696.44;5052529;28;20283;-56
2024/01/14 02:31:45;;;;;;;12.17;10.87;;;;;;;0.46;100.00;98700.69;5058483;28;20194;-50
2024/01/14 02:34:13;;;;;;;12.80;9.57;;;;;;;0.47;100.00;98695.63;5068024;28;20203;-52
2024/01/14 02:36:41;;;;;;;13.77;11.33;;;;;;;0.51;100.00;98710.84;5070100;28;20203;-51
2024/01/14 02:39:09;;;;;;;12.10;9.97;;;;;;;0.52;100.00;98688.09;5067294;28;20679;-51
2024/01/14 02:41:39;;;;;;;13.30;10.60;;;;;;;0.52;100.00;98680.47;5062123;28;20658;-53
2024/01/14 02:44:07;;;;;;;13.90;9.73;;;;;;;0.54;100.00;98668.66;5067047;28;20209;-50
2024/01/14 02:46:36;;;;;;;10.97;8.27;;;;;;;0.56;100.00;98661.06;5066575;28;20652;-50
2024/01/14 02:49:03;;;;;;;11.70;9.70;;;;;;;0.56;100.00;98669.53;5063130;28;20238;-52
2024/01/14 02:51:31;;;;;;;11.50;9.17;;;;;;;0.59;100.00;98668.66;5071230;28;20208;-53
2024/01/14 02:54:01;;;;;;;11.73;9.20;;;;;;;0.60;100.00;98656.03;5070559;28;20228;-51
2024/01/14 02:56:30;;;;;;;12.00;9.50;;;;;;;0.60;100.00;98648.41;5064740;28;20201;-53
2024/01/14 02:58:59;;;;;;;10.17;7.60;;;;;;;0.64;100.00;98664.50;5056335;28;20675;-53
2024/01/14 03:01:27;;;;;;;11.70;8.20;;;;;;;0.66;100.00;98652.66;5067758;28;20645;-52
2024/01/14 03:03:55;;;;;;;10.90;8.17;;;;;;;0.64;100.00;98651.81;5070535;28;20656;-54
2024/01/14 03:06:23;;;;;;;11.30;8.57;;;;;;;0.68;100.00;98645.94;5068560;28;20198;-51
2024/01/14 03:08:51;;;;;;;10.07;8.10;;;;;;;0.68;99.84;98656.91;5070033;28;20324;-53
2024/01/14 03:11:19;;;;;;;11.77;7.80;;;;;;;0.69;98.94;98648.44;5067167;28;20212;-53
2024/01/14 03:13:47;;;;;;;11.80;8.00;;;;;;;0.73;98.63;98649.31;5067368;28;20583;-50
2024/01/14 03:16:18;;;;;;;12.47;8.00;;;;;;;0.75;99.21;98652.72;5072743;28;20232;-51
2024/01/14 03:18:46;;;;;;;10.40;7.20;;;;;;;0.77;98.24;98645.13;5067643;28;20204;-51
2024/01/14 03:21:18;;;;;;;9.77;6.67;;;;;;;0.79;98.57;98639.22;5073655;28;20205;-54
2024/01/14 03:23:46;;;;;;;9.33;7.53;;;;;;;0.79;97.69;98639.22;5071587;28;20259;-53
2024/01/14 03:26:14;;;;;;;9.73;7.07;;;;;;;0.81;97.92;98637.56;5064171;28;20210;-53
2024/01/14 03:28:42;;;;;;;9.33;6.73;;;;;;;0.83;97.44;98630.78;5066674;28;20232;-51
2024/01/14 03:31:15;;;;;;;9.70;7.60;;;;;;;0.83;97.26;98640.94;5065750;28;20217;-54
2024/01/14 03:33:44;;;;;;;9.63;6.73;;;;;;;0.85;97.48;98644.34;5072259;28;20205;-53
2024/01/14 03:36:13;;;;;;;9.87;6.60;;;;;;;0.86;96.52;98633.34;5059952;28;20576;-57
2024/01/14 03:38:42;;;;;;;11.30;6.90;;;;;;;0.89;96.41;98627.44;5069793;28;20251;-50
2024/01/14 03:41:10;;;;;;;9.33;7.50;;;;;;;0.89;96.75;98628.28;5064349;28;20296;-51
2024/01/14 03:43:38;;;;;;;9.90;7.93;;;;;;;0.92;96.25;98629.97;5073338;28;20714;-52
2024/01/14 03:46:06;;;;;;;7.67;6.33;;;;;;;0.91;96.45;98634.19;5073235;28;20634;-52
2024/01/14 03:48:34;;;;;;;8.93;6.43;;;;;;;0.89;97.32;98619.84;5073167;28;20217;-51
2024/01/14 03:51:04;;;;;;;9.40;7.00;;;;;;;0.88;96.84;98626.56;5073101;28;20661;-55
2024/01/14 03:53:32;;;;;;;10.47;8.30;;;;;;;0.86;97.48;98624.88;5063325;28;20300;-50
2024/01/14 03:56:00;;;;;;;11.83;7.67;;;;;;;0.85;97.52;98628.28;5069559;28;20694;-50
2024/01/14 03:58:28;;;;;;;10.50;7.00;;;;;;;0.83;97.77;98613.03;5071397;28;20201;-49
2024/01/14 04:00:56;;;;;;;8.53;6.17;;;;;;;0.83;97.53;98614.72;5073293;28;20557;-53
2024/01/14 04:03:24;;;;;;;8.30;7.20;;;;;;;0.84;98.04;98626.56;5072900;28;20204;-53
2024/01/14 04:05:52;;;;;;;7.63;6.60;;;;;;;0.82;97.22;98613.88;5072486;28;20209;-52
2024/01/14 04:08:21;;;;;;;8.03;6.87;;;;;;;0.83;96.51;98607.13;5071614;28;20267;-53
2024/01/14 04:10:49;;;;;;;8.80;7.63;;;;;;;0.83;96.70;98604.59;5064420;28;20202;-51
2024/01/14 04:13:17;;;;;;;8.37;5.93;;;;;;;0.85;96.48;98613.91;5068269;28;20227;-52
2024/01/14 04:15:45;;;;;;;9.03;6.83;;;;;;;0.85;97.14;98608.84;5067783;28;20632;-55
2024/01/14 04:18:13;;;;;;;7.83;6.47;;;;;;;0.80;96.98;98600.34;5072274;28;20233;-52
2024/01/14 04:20:41;;;;;;;8.70;6.77;;;;;;;0.87;96.20;98607.13;5072451;28;20576;-53
2024/01/14 04:23:09;;;;;;;8.03;6.43;;;;;;;0.88;96.29;98603.75;5072632;28;20648;-52
2024/01/14 04:25:39;;;;;;;7.37;6.47;;;;;;;0.89;97.00;98597.88;5057152;28;20205;-52
2024/01/14 04:28:07;;;;;;;8.20;6.77;;;;;;;0.89;96.23;98595.31;5070110;28;20213;-54
2024/01/14 04:30:34;;;;;;;10.37;6.27;;;;;;;0.89;96.27;98592.78;5067656;28;20202;-54
2024/01/14 04:33:03;;;;;;;7.70;6.30;;;;;;;0.90;96.56;98591.09;5067085;28;20205;-53
2024/01/14 04:35:31;;;;;;;9.40;6.30;;;;;;;0.89;95.58;98589.41;5072472;28;20205;-51
2024/01/14 04:37:59;;;;;;;8.77;6.40;;;;;;;0.90;96.50;98596.16;5072462;28;20566;-53
2024/01/14 04:40:28;;;;;;;7.40;6.40;;;;;;;0.90;96.43;98594.47;5071843;28;20683;-54
2024/01/14 04:42:57;;;;;;;10.20;6.07;;;;;;;0.91;96.77;98583.47;5065530;28;20205;-52
2024/01/14 04:45:24;;;;;;;11.13;6.17;;;;;;;0.93;96.72;98586.88;5065723;28;20201;-55
2024/01/14 04:47:52;;;;;;;9.53;7.00;;;;;;;0.91;95.93;98580.94;5063231;28;20251;-55
2024/01/14 04:50:20;;;;;;;7.80;6.20;;;;;;;0.92;95.54;98584.31;5071643;28;20244;-51
2024/01/14 04:52:48;;;;;;;8.57;6.80;;;;;;;0.91;95.65;98573.34;5068237;28;20230;-52
2024/01/14 04:55:16;;;;;;;8.70;6.93;;;;;;;0.90;96.10;98570.81;5066908;28;20209;-54
2024/01/14 04:57:44;;;;;;;8.40;7.53;;;;;;;0.91;95.64;98583.47;5071668;28;20197;-54
2024/01/14 05:00:14;;;;;;;7.63;6.27;;;;;;;0.90;96.17;98580.94;5071898;28;20271;-52
2024/01/14 05:02:43;;;;;;;7.37;6.63;;;;;;;0.90;96.05;98586.03;5067975;28;20717;-53
2024/01/14 05:05:11;;;;;;;7.73;6.43;;;;;;;0.90;95.75;98584.34;5067665;28;20229;-54
2024/01/14 05:07:39;;;;;;;9.07;6.83;;;;;;;0.91;95.24;98577.56;5068343;28;20236;-54
2024/01/14 05:10:07;;;;;;;8.03;6.63;;;;;;;0.90;95.13;98576.72;5069006;28;20622;-53
2024/01/14 05:12:35;;;;;;;8.23;6.97;;;;;;;0.90;96.36;98563.22;5063859;28;20206;-53
2024/01/14 05:15:04;;;;;;;9.23;7.00;;;;;;;0.84;97.28;98576.69;5071763;28;20690;-54
2024/01/14 05:17:33;;;;;;;8.93;7.50;;;;;;;0.80;98.30;98559.78;5069185;28;20259;-52
2024/01/14 05:20:01;;;;;;;15.30;7.83;;;;;;;0.78;98.92;98576.69;5071779;28;20593;-52
2024/01/14 05:22:29;;;;;;;9.80;7.80;;;;;;;0.73;98.61;98583.41;5064767;28;20217;-51
2024/01/14 05:24:57;;;;;;;9.60;8.40;;;;;;;0.71;99.38;98572.44;5070962;28;20577;-53
2024/01/14 05:27:25;;;;;;;9.47;8.07;;;;;;;0.67;99.47;98581.72;5057362;28;20202;-52
2024/01/14 05:29:53;;;;;;;8.50;7.07;;;;;;;0.66;100.00;98571.56;5067603;28;20221;-51
2024/01/14 05:32:21;;;;;;;8.10;7.03;;;;;;;0.65;100.00;98569.88;5060976;28;20669;-54
2024/01/14 05:34:50;;;;;;;9.17;7.43;;;;;;;0.65;100.00;98572.41;5071386;28;20205;-51
2024/01/14 05:37:18;;;;;;;12.23;7.30;;;;;;;0.67;100.00;98573.28;5070945;28;20299;-51
2024/01/14 05:39:46;;;;;;;10.40;7.60;;;;;;;0.67;100.00;98570.72;5064747;28;20201;-53
2024/01/14 05:42:14;;;;;;;9.50;8.07;;;;;;;0.70;99.65;98563.13;5066094;28;20648;-54
2024/01/14 05:44:42;;;;;;;8.93;7.17;;;;;;;0.72;99.84;98574.97;5071419;28;20197;-51
2024/01/14 05:47:10;;;;;;;9.30;7.33;;;;;;;0.72;99.03;98569.91;5072013;28;20198;-55
2024/01/14 05:49:38;;;;;;;10.00;7.23;;;;;;;0.75;99.46;98570.75;5070800;28;20239;-53
2024/01/14 05:52:07;;;;;;;9.43;7.93;;;;;;;0.75;99.20;98569.06;5071514;28;20208;-54
2024/01/14 05:54:35;;;;;;;10.30;7.07;;;;;;;0.75;99.04;98574.13;5068515;28;20672;-51
2024/01/14 05:57:04;;;;;;;9.67;7.57;;;;;;;0.74;99.51;98564.84;5071097;28;20201;-51
2024/01/14 05:59:32;;;;;;;9.40;7.70;;;;;;;0.72;99.40;98556.38;5064122;28;20206;-52
2024/01/14 06:01:59;;;;;;;7.77;6.63;;;;;;;0.72;99.57;98557.22;5066810;28;20216;-53
2024/01/14 06:04:27;;;;;;;9.77;6.67;;;;;;;0.75;99.65;98556.41;5071180;28;20308;-52
2024/01/14 06:06:55;;;;;;;7.77;6.97;;;;;;;0.74;99.33;98559.78;5071492;28;20649;-49
2024/01/14 06:09:25;;;;;;;9.03;7.13;;;;;;;0.74;98.99;98554.72;5070193;28;20221;-55
2024/01/14 06:11:53;;;;;;;8.97;7.73;;;;;;;0.75;98.28;98545.41;5069215;28;20250;-51
2024/01/14 06:14:21;;;;;;;8.27;6.73;;;;;;;0.72;98.79;98549.63;5071080;28;20213;-54
2024/01/14 06:16:49;;;;;;;7.60;6.27;;;;;;;0.75;98.14;98540.34;5066359;28;20223;-51
2024/01/14 06:19:17;;;;;;;9.63;6.97;;;;;;;0.73;98.69;98532.72;5070966;28;20212;-54
2024/01/14 06:21:45;;;;;;;7.73;6.47;;;;;;;0.76;98.44;98553.00;5070747;28;20212;-54
2024/01/14 06:24:14;;;;;;;7.20;6.10;;;;;;;0.79;98.38;98545.41;5064709;28;20210;-54
2024/01/14 06:26:43;;;;;;;7.23;6.07;;;;;;;0.80;97.95;98544.56;5062721;28;20224;-53
2024/01/14 06:29:11;;;;;;;7.43;5.40;;;;;;;0.81;98.17;98556.44;5063393;28;20684;-53
2024/01/14 06:31:39;;;;;;;6.33;5.13;;;;;;;0.80;98.11;98542.03;5065067;28;20248;-53
2024/01/14 06:34:07;;;;;;;8.13;5.90;;;;;;;0.81;97.38;98555.56;5055878;28;20605;-52
2024/01/14 06:36:35;;;;;;;10.00;5.83;;;;;;;0.80;97.18;98546.25;5071006;28;20292;-53
2024/01/14 06:39:05;;;;;;;7.40;6.60;;;;;;;0.82;97.75;98547.13;5057240;28;20201;-51
2024/01/14 06:41:34;;;;;;;7.17;6.47;;;;;;;0.82;97.82;98553.03;5064657;28;20263;-49
2024/01/14 06:44:04;;;;;;;7.90;5.83;;;;;;;0.81;97.84;98558.97;5061547;28;20216;-54
2024/01/14 06:46:32;;;;;;;7.27;6.00;;;;;;;0.79;97.28;98553.03;5066546;28;20220;-54
2024/01/14 06:49:00;;;;;;;6.73;6.03;;;;;;;0.80;97.65;98548.78;5071310;28;20267;-54
2024/01/14 06:51:29;;;;;;;8.20;6.17;;;;;;;0.80;97.49;98554.72;5067797;28;20197;-54
2024/01/14 06:53:57;;;;;;;7.50;6.20;;;;;;;0.80;98.21;98558.94;5072808;28;20201;-53
2024/01/14 06:56:25;;;;;;;7.77;6.27;;;;;;;0.81;97.86;98558.09;5074388;28;20200;-53
2024/01/14 06:58:53;;;;;;;7.70;6.13;;;;;;;0.81;98.27;98543.75;5071179;28;20330;-51
2024/01/14 07:01:22;;;;;;;7.93;5.70;;;;;;;0.80;97.92;98567.38;5073605;28;20209;-50
2024/01/14 07:03:50;;;;;;;7.13;6.13;;;;;;;0.76;97.95;98568.22;5073964;28;20212;-54
2024/01/14 07:06:18;;;;;;;7.10;6.40;;;;;;;0.72;98.69;98574.13;5060560;28;20287;-54
2024/01/14 07:08:46;;;;;;;10.10;6.40;;;;;;;0.70;98.78;98569.06;5068593;28;20255;-54
2024/01/14 07:11:14;;;;;;;7.37;6.47;;;;;;;0.71;98.65;98569.91;5070538;28;20392;-53
2024/01/14 07:13:43;;;;;;;7.70;6.00;;;;;;;0.72;98.96;98574.97;5072124;28;20264;-52
2024/01/14 07:16:12;;;;;;;8.47;6.13;;;;;;;0.70;99.25;98574.13;5067141;28;20225;-55
2024/01/14 07:18:41;;;;;;;7.37;6.40;;;;;;;0.68;99.37;98568.19;5069952;28;20305;-53
2024/01/14 07:21:10;;;;;;;7.57;6.67;;;;;;;0.68;99.29;98569.88;5074151;28;20621;-52
2024/01/14 07:23:39;;;;;;;8.97;7.43;;;;;;;0.67;99.50;98560.59;5069942;28;20547;-54
2024/01/14 07:26:15;;;;;;;8.30;7.40;;;;;;;0.64;99.63;98555.50;5065275;28;20201;-54
2024/01/14 07:28:43;;;;;;;9.50;6.80;;;;;;;0.64;100.00;98551.28;5065025;28;20205;-51
2024/01/14 07:31:12;;;;;;;7.73;6.87;;;;;;;0.64;100.00;98563.94;5073280;28;20227;-51
2024/01/14 07:33:42;;;;;;;8.50;7.03;;;;;;;0.64;100.00;98558.03;5061015;28;20294;-55
2024/01/14 07:36:10;;;;;;;9.67;8.00;;;;;;;0.59;100.00;98559.69;5065617;28;20729;-53
2024/01/14 07:38:39;;;;;;;9.33;7.60;;;;;;;0.58;100.00;98563.91;5073677;28;20641;-53
2024/01/14 07:41:07;;;;;;;10.53;6.77;;;;;;;0.57;100.00;98556.31;5065267;28;20204;-53
2024/01/14 07:43:34;;;;;;;10.03;7.07;;;;;;;0.54;100.00;98559.69;5063357;28;20209;-53
2024/01/14 07:46:02;;;;;;;8.93;7.07;;;;;;;0.56;100.00;98560.53;5070669;28;20208;-49
2024/01/14 07:48:30;;;;;;;9.53;7.03;;;;;;;0.56;100.00;98559.69;5071766;28;20209;-53
2024/01/14 07:51:00;;;;;;;9.33;6.80;;;;;;;0.58;100.00;98558.84;5067358;28;20236;-54
2024/01/14 07:53:28;;;;;;;8.23;7.10;;;;;;;0.58;100.00;98552.94;5058633;28;20668;-54
2024/01/14 07:55:56;;;;;;;8.83;6.57;;;;;;;0.58;100.00;98558.00;5073048;28;20665;-54
2024/01/14 07:58:24;;;;;;;8.87;6.47;;;;;;;0.59;100.00;98555.50;5073181;28;20209;-52
2024/01/14 08:00:52;;;;;;;8.10;6.63;;;;;;;0.63;100.00;98571.56;5069580;28;20644;-52
2024/01/14 08:03:29;;;;;;;8.43;6.00;;;;;;;0.59;100.00;98555.50;5069045;28;20736;-56
2024/01/14 08:06:00;;;;;;;10.73;7.10;;;;;;;0.59;100.00;98554.63;5070517;28;20201;-51
2024/01/14 08:08:29;;;;;;;8.23;6.97;;;;;;;0.58;100.00;98563.06;5069642;28;20266;-52
2024/01/14 08:10:57;;;;;;;9.93;6.80;;;;;;;0.58;100.00;98568.13;5071986;28;20225;-53
2024/01/14 08:13:25;;;;;;;10.30;6.40;;;;;;;0.57;100.00;98556.31;5060050;28;20205;-52
2024/01/14 08:15:52;;;;;;;8.53;6.30;;;;;;;0.59;100.00;98557.16;5071425;28;20635;-53
2024/01/14 08:18:29;;;;;;;8.63;6.40;;;;;;;0.59;100.00;98554.63;5064561;28;20203;-54
2024/01/14 08:21:01;;;;;;;9.50;6.30;;;;;;;0.59;100.00;98557.16;5069864;28;20672;-52
2024/01/14 08:23:32;;;;;;;9.40;6.50;;;;;;;0.58;100.00;98552.94;5072129;28;20201;-52
2024/01/14 08:26:02;;;;;;;9.90;7.07;;;;;;;0.57;100.00;98561.38;5072714;28;20207;-51
2024/01/14 08:28:32;;;;;;;9.00;6.30;;;;;;;0.57;100.00;98546.19;5067582;28;20659;-56
2024/01/14 08:31:00;;;;;;;10.13;7.37;;;;;;;0.59;100.00;98559.69;5068781;28;20213;-54
2024/01/14 08:33:29;;;;;;;6.80;5.53;;;;;;;0.63;100.00;98563.97;5065588;28;20209;-52
2024/01/14 08:35:58;;;;;;;7.70;5.57;;;;;;;0.64;100.00;98558.03;5062092;28;20201;-59
2024/01/14 08:38:27;;;;;;;7.57;6.53;;;;;;;0.59;100.00;98554.63;5065964;28;20631;-52
2024/01/14 08:40:55;;;;;;;7.33;6.23;;;;;;;0.66;100.00;98569.00;5071589;28;20209;-54
2024/01/14 08:43:23;;;;;;;8.77;6.30;;;;;;;0.67;100.00;98568.19;5071986;28;20212;-52
2024/01/14 08:45:51;;;;;;;8.67;7.13;;;;;;;0.67;100.00;98573.28;5066335;28;20233;-54
2024/01/14 08:48:19;;;;;;;8.27;5.83;;;;;;;0.66;100.00;98587.63;5068349;28;20197;-50
2024/01/14 08:50:47;;;;;;;8.77;6.80;;;;;;;0.65;100.00;98567.34;5064101;28;20237;-56
2024/01/14 08:53:15;;;;;;;9.07;6.50;;;;;;;0.62;100.00;98578.28;5071082;28;20209;-54
2024/01/14 08:55:44;;;;;;;8.23;6.73;;;;;;;0.61;100.00;98588.44;5072035;28;20242;-53
2024/01/14 08:58:12;;;;;;;8.50;6.57;;;;;;;0.58;100.00;98583.34;5072017;28;20611;-51
2024/01/14 09:00:40;;;;;;;8.53;6.47;;;;;;;0.59;100.00;98590.09;5071429;28;20228;-51
2024/01/14 09:03:09;;;;;;;8.00;6.20;;;;;;;0.60;100.00;98596.88;5062035;28;20204;-51
2024/01/14 09:05:37;;;;;;;6.70;6.00;;;;;;;0.59;100.00;98587.56;5063297;28;20201;-54
2024/01/14 09:08:05;;;;;;;8.10;6.10;;;;;;;0.60;100.00;98582.53;5064277;28;20247;-54
2024/01/14 09:10:33;;;;;;;9.13;6.37;;;;;;;0.61;100.00;98596.03;5059733;28;20249;-59
2024/01/14 09:13:02;;;;;;;8.20;6.80;;;;;;;0.63;100.00;98594.38;5063286;28;20292;-59
2024/01/14 09:15:30;;;;;;;9.73;6.47;;;;;;;0.65;100.00;98598.59;5068590;28;20237;-58
2024/01/14 09:17:59;;;;;;;8.63;6.50;;;;;;;0.66;100.00;98590.16;5064236;28;20296;-53
2024/01/14 09:20:27;;;;;;;8.30;5.70;;;;;;;0.68;100.00;98597.75;5069508;28;20201;-51
2024/01/14 09:22:55;;;;;;;7.03;5.57;;;;;;;0.67;100.00;98593.53;5063332;28;20206;-55
2024/01/14 09:25:23;;;;;;;7.13;5.27;;;;;;;0.70;100.00;98593.53;5058041;28;20197;-52
2024/01/14 09:27:54;;;;;;;8.63;6.40;;;;;;;0.70;100.00;98585.94;5061379;28;20204;-57
2024/01/14 09:30:23;;;;;;;8.93;5.63;;;;;;;0.69;99.71;98594.38;5057973;28;20611;-57
2024/01/14 09:32:53;;;;;;;8.10;6.03;;;;;;;0.70;100.00;98596.06;5056532;28;20201;-57
2024/01/14 09:35:22;;;;;;;7.57;5.57;;;;;;;0.71;99.76;98601.16;5054309;28;20573;-58
2024/01/14 09:37:50;;;;;;;8.83;5.33;;;;;;;0.73;100.00;98598.63;5066604;28;20580;-58
2024/01/14 09:40:19;;;;;;;9.03;5.40;;;;;;;0.72;100.00;98602.00;5068966;28;20235;-57
2024/01/14 09:42:51;;;;;;;7.17;5.67;;;;;;;0.71;99.07;98608.75;5069925;28;20201;-58
2024/01/14 09:45:21;;;;;;;7.13;5.13;;;;;;;0.71;99.52;98606.22;5070755;28;20205;-59
2024/01/14 09:47:59;;;;;;;6.07;5.00;;;;;;;0.73;98.97;98596.94;5061215;28;20573;-59
2024/01/14 09:50:29;;;;;;;8.50;5.53;;;;;;;0.75;98.50;98596.94;5067309;28;20247;-57
2024/01/14 09:52:58;;;;;;;9.70;4.90;;;;;;;0.79;99.52;98601.19;5070835;28;20205;-57
2024/01/14 09:55:27;;;;;;;10.87;6.27;;;;;;;0.81;99.01;98611.31;5068901;28;20239;-57
2024/01/14 09:58:00;;;;;;;5.47;4.90;;;;;;;0.81;98.31;98601.19;5066691;28;20683;-58
2024/01/14 10:00:30;;;;;;;8.23;4.67;;;;;;;0.81;99.28;98594.47;5066682;28;20205;-58
2024/01/14 10:02:59;;;;;;;8.50;5.63;;;;;;;0.81;98.84;98598.66;5069016;28;20660;-57
2024/01/14 10:05:32;;;;;;;8.53;5.30;;;;;;;0.81;99.75;98606.25;5064917;28;20214;-57
2024/01/14 10:08:00;;;;;;;5.53;4.77;;;;;;;0.80;99.63;98595.28;5068513;28;20675;-58
2024/01/14 10:10:29;;;;;;;6.27;4.87;;;;;;;0.80;98.81;98592.75;5070118;28;20596;-56
2024/01/14 10:12:58;;;;;;;7.27;4.63;;;;;;;0.82;99.72;98587.69;5069692;28;20206;-58
2024/01/14 10:15:26;;;;;;;9.27;5.83;;;;;;;0.84;99.59;98591.91;5070444;28;20647;-59
2024/01/14 10:17:54;;;;;;;6.93;5.57;;;;;;;0.82;99.19;98586.00;5069133;28;20196;-59
2024/01/14 10:20:23;;;;;;;7.70;5.40;;;;;;;0.82;99.50;98600.38;5071276;28;20202;-57
2024/01/14 10:22:51;;;;;;;8.90;6.13;;;;;;;0.81;99.80;98593.59;5063549;28;20652;-55
2024/01/14 10:25:20;;;;;;;6.83;5.67;;;;;;;0.81;100.00;98594.47;5070818;28;20739;-57
2024/01/14 10:27:48;;;;;;;8.43;5.37;;;;;;;0.81;100.00;98596.13;5066710;28;20204;-58
2024/01/14 10:30:16;;;;;;;9.13;5.33;;;;;;;0.83;100.00;98602.06;5069060;28;20208;-55
2024/01/14 10:32:44;;;;;;;6.33;5.37;;;;;;;0.82;100.00;98591.06;5063769;28;20209;-57
2024/01/14 10:35:33;;;;;;;8.73;5.60;;;;;;;0.78;100.00;98594.44;5074545;28;20213;-58
2024/01/14 10:38:02;;;;;;;8.87;5.77;;;;;;;0.75;100.00;98604.56;5074027;28;20639;-60
2024/01/14 10:40:30;;;;;;;7.50;5.30;;;;;;;0.72;100.00;98592.72;5074293;28;20656;-57
2024/01/14 10:42:58;;;;;;;13.37;6.17;;;;;;;0.68;100.00;98587.63;5069158;28;20250;-58
2024/01/14 10:45:26;;;;;;;7.10;5.37;;;;;;;0.66;100.00;98582.56;5062790;28;20214;-58
2024/01/14 10:47:58;;;;;;;6.67;5.60;;;;;;;0.67;100.00;98589.31;5068889;28;20575;-55
2024/01/14 10:50:27;;;;;;;7.83;6.47;;;;;;;0.66;100.00;98581.69;5068770;28;20302;-57
2024/01/14 10:53:19;;;;;;;10.67;6.00;;;;;;;0.66;100.00;98594.38;5062147;28;20222;-58
2024/01/14 10:55:48;;;;;;;8.10;6.20;;;;;;;0.66;100.00;98591.81;5067503;28;20738;-59
2024/01/14 10:58:25;;;;;;;8.77;6.37;;;;;;;0.68;100.00;98590.16;5063318;28;20205;-59
2024/01/14 11:00:56;;;;;;;7.70;5.83;;;;;;;0.69;100.00;98592.69;5065585;28;20252;-59
2024/01/14 11:03:25;;;;;;;10.37;7.10;;;;;;;0.67;100.00;98594.38;5065289;28;20205;-57
2024/01/14 11:05:54;;;;;;;7.83;6.73;;;;;;;0.63;100.00;98582.53;5067580;28;20206;-59
2024/01/14 11:08:24;;;;;;;9.00;6.53;;;;;;;0.61;100.00;98578.31;5069018;28;20354;-59
2024/01/14 11:10:54;;;;;;;9.80;7.10;;;;;;;0.60;100.00;98582.53;5063902;28;20680;-58
2024/01/14 11:13:25;;;;;;;10.07;6.73;;;;;;;0.58;100.00;98586.72;5071178;28;20304;-62
2024/01/14 11:16:00;;;;;;;10.97;6.60;;;;;;;0.61;100.00;98588.44;5072072;28;20296;-57
2024/01/14 11:18:34;;;;;;;10.33;7.20;;;;;;;0.63;100.00;98584.22;5072661;28;20565;-58
2024/01/14 11:21:19;;;;;;;12.83;8.33;;;;;;;0.61;100.00;98583.38;5072839;28;20205;-56
2024/01/14 11:24:08;;;;;;;13.27;8.83;;;;;;;0.61;100.00;98583.38;5072894;28;20201;-60
2024/01/14 11:26:37;;;;;;;9.63;8.03;;;;;;;0.62;100.00;98585.06;5069567;28;20802;-55
2024/01/14 11:29:05;;;;;;;9.90;7.53;;;;;;;0.63;100.00;98576.63;5072779;28;20229;-58
2024/01/14 11:32:06;;;;;;;10.93;7.50;;;;;;;0.65;100.00;98585.91;5073708;28;20580;-59
2024/01/14 11:34:57;;;;;;;12.53;8.00;;;;;;;0.65;100.00;98585.06;5049696;28;20205;-58
2024/01/14 11:37:42;;;;;;;10.07;6.97;;;;;;;0.69;100.00;98579.16;5065106;28;20217;-57
2024/01/14 11:40:15;;;;;;;10.47;7.83;;;;;;;0.70;100.00;98578.31;5070226;28;20264;-55